Time;durP1;ratioP1;P1;durP2;ratioP2;P2;SDS_P1;SDS_P2;PMS_P1;PMS_P2;Temp;Humidity;BMP_temperature;BMP_pressure;BME280_temperature;BME280_humidity;BME280_pressure;Samples;Min_cycle;Max_cycle;Signal;HPM_P1;HPM_P2
2022/04/11 00:00:01;;;;;;;9.45;3.30;;;3.70;96.30;;;;;;6251793;28;20052;-79
2022/04/11 00:03:04;;;;;;;7.07;3.03;;;3.70;96.40;;;;;;6250924;28;20049;-79
2022/04/11 00:06:06;;;;;;;5.78;3.75;;;3.70;96.40;;;;;;6250860;28;20045;-79
2022/04/11 00:09:08;;;;;;;3.28;2.42;;;3.60;96.40;;;;;;6250728;28;20085;-80
2022/04/11 00:12:10;;;;;;;4.07;2.60;;;3.50;96.40;;;;;;6251599;28;20076;-79
2022/04/11 00:15:12;;;;;;;7.45;3.83;;;3.50;96.40;;;;;;6250598;28;20534;-80
2022/04/11 00:18:15;;;;;;;3.35;2.25;;;3.50;96.50;;;;;;6243725;28;20050;-78
2022/04/11 00:21:17;;;;;;;5.00;3.08;;;3.40;96.50;;;;;;6225217;28;20050;-80
2022/04/11 00:24:19;;;;;;;4.80;2.42;;;3.40;96.50;;;;;;6220475;28;20176;-77
2022/04/11 00:27:21;;;;;;;4.47;2.47;;;3.30;96.60;;;;;;6230616;28;20041;-80
2022/04/11 00:30:22;;;;;;;2.88;2.28;;;3.30;96.70;;;;;;6249921;28;20105;-80
2022/04/11 00:33:25;;;;;;;6.30;2.95;;;3.20;96.80;;;;;;6236149;28;20067;-79
2022/04/11 00:36:27;;;;;;;5.68;2.42;;;3.30;96.70;;;;;;6250750;28;20052;-79
2022/04/11 00:39:29;;;;;;;5.43;3.00;;;3.30;96.70;;;;;;6242865;28;20049;-79
2022/04/11 00:42:32;;;;;;;4.10;2.35;;;3.30;96.70;;;;;;6250042;28;20055;-79
2022/04/11 00:45:34;;;;;;;11.57;3.00;;;3.40;96.70;;;;;;6251103;28;20049;-80
2022/04/11 00:48:38;;;;;;;6.28;3.00;;;3.40;96.70;;;;;;6250673;28;20057;-79
2022/04/11 00:51:41;;;;;;;3.55;2.10;;;3.40;96.70;;;;;;6250759;28;20057;-79
2022/04/11 00:54:43;;;;;;;5.70;3.25;;;3.40;96.80;;;;;;6250491;28;20049;-78
2022/04/11 00:57:46;;;;;;;5.15;2.50;;;3.40;96.70;;;;;;6250789;28;20049;-76
2022/04/11 01:00:47;;;;;;;4.40;2.55;;;3.40;96.80;;;;;;6250547;28;20046;-79
2022/04/11 01:03:51;;;;;;;5.20;3.33;;;3.40;96.70;;;;;;6250929;28;20050;-78
2022/04/11 01:06:54;;;;;;;7.05;2.97;;;3.40;96.70;;;;;;6251570;28;20486;-79
2022/04/11 01:09:56;;;;;;;9.68;3.47;;;3.40;96.80;;;;;;6251672;28;20053;-80
2022/04/11 01:12:58;;;;;;;5.72;2.80;;;3.40;96.70;;;;;;6251510;28;20584;-79
2022/04/11 01:16:03;;;;;;;9.52;3.42;;;3.40;96.80;;;;;;6252556;28;20434;-77
2022/04/11 01:19:06;;;;;;;5.90;3.90;;;3.40;96.90;;;;;;6247434;28;20486;-78
2022/04/11 01:22:10;;;;;;;11.23;5.00;;;3.50;97.00;;;;;;6236960;28;20045;-78
2022/04/11 01:25:12;;;;;;;7.80;3.67;;;3.60;97.00;;;;;;6254238;28;20056;-79
2022/04/11 01:28:14;;;;;;;11.02;3.38;;;3.60;96.80;;;;;;6253763;28;20053;-79
2022/04/11 01:31:16;;;;;;;13.40;3.13;;;3.70;96.80;;;;;;6251837;28;20571;-79
2022/04/11 01:34:18;;;;;;;8.45;3.42;;;3.70;96.70;;;;;;6254381;28;20045;-79
2022/04/11 01:37:22;;;;;;;8.45;3.20;;;3.70;96.60;;;;;;6255676;28;20050;-79
2022/04/11 01:40:24;;;;;;;9.82;4.00;;;3.80;96.70;;;;;;6254064;28;20055;-79
2022/04/11 01:43:26;;;;;;;8.40;3.97;;;3.80;96.70;;;;;;6252760;28;20045;-80
2022/04/11 01:46:28;;;;;;;6.22;2.88;;;3.90;96.70;;;;;;6251609;28;20056;-80
2022/04/11 01:49:30;;;;;;;6.13;2.85;;;3.90;96.70;;;;;;6251323;28;20434;-79
2022/04/11 01:52:33;;;;;;;5.13;3.47;;;3.90;96.40;;;;;;6252950;28;20049;-79
2022/04/11 01:55:35;;;;;;;4.18;2.60;;;4.00;96.60;;;;;;6251646;28;20526;-79
2022/04/11 01:58:37;;;;;;;5.57;3.08;;;4.00;96.60;;;;;;6251456;28;20119;-79
2022/04/11 02:01:39;;;;;;;8.45;4.13;;;4.10;96.50;;;;;;6251122;28;20041;-79
2022/04/11 02:04:40;;;;;;;5.40;3.92;;;4.10;96.50;;;;;;6251085;28;20067;-79
2022/04/11 02:07:43;;;;;;;9.07;3.75;;;4.20;96.40;;;;;;6251213;28;20499;-79
2022/04/11 02:10:45;;;;;;;4.20;3.03;;;4.20;96.40;;;;;;6249858;28;20109;-79
2022/04/11 02:13:47;;;;;;;8.60;2.95;;;4.20;96.40;;;;;;6250849;28;20045;-78
2022/04/11 02:16:49;;;;;;;10.32;3.58;;;4.30;96.50;;;;;;6250026;28;20053;-78
2022/04/11 02:19:51;;;;;;;7.50;3.65;;;4.30;96.30;;;;;;6242701;28;20053;-79
2022/04/11 02:22:55;;;;;;;10.75;2.90;;;4.30;96.40;;;;;;6244220;28;20060;-79
2022/04/11 02:25:57;;;;;;;5.38;3.40;;;4.30;96.50;;;;;;6250977;28;20042;-79
2022/04/11 02:28:58;;;;;;;3.40;2.33;;;4.30;96.40;;;;;;6251103;28;20054;-79
2022/04/11 02:32:00;;;;;;;9.07;2.50;;;4.40;96.40;;;;;;6251383;28;20056;-79
2022/04/11 02:35:02;;;;;;;5.60;2.90;;;4.40;96.40;;;;;;6250434;28;20053;-79
2022/04/11 02:38:05;;;;;;;5.72;3.17;;;4.40;96.30;;;;;;6250958;28;20037;-79
2022/04/11 02:41:07;;;;;;;8.20;2.75;;;4.40;96.30;;;;;;6250472;28;20053;-79
2022/04/11 02:44:09;;;;;;;4.72;3.25;;;4.50;96.30;;;;;;6254791;28;20059;-79
2022/04/11 02:47:11;;;;;;;4.75;3.08;;;4.50;96.30;;;;;;6255584;28;20057;-79
2022/04/11 02:50:13;;;;;;;8.85;3.63;;;4.50;96.20;;;;;;6254641;28;20045;-79
2022/04/11 02:53:16;;;;;;;6.95;4.13;;;4.50;96.20;;;;;;6255620;28;20136;-79
2022/04/11 02:56:18;;;;;;;6.60;3.15;;;4.50;96.20;;;;;;6254962;28;20041;-78
2022/04/11 02:59:20;;;;;;;5.85;2.80;;;4.50;96.30;;;;;;6254741;28;20474;-79
2022/04/11 03:02:22;;;;;;;7.95;2.90;;;4.50;96.30;;;;;;6254986;28;20124;-79
2022/04/11 03:05:24;;;;;;;5.93;3.08;;;4.50;96.50;;;;;;6254722;28;20080;-78
2022/04/11 03:08:27;;;;;;;6.35;3.13;;;4.50;96.30;;;;;;6255342;28;20180;-79
2022/04/11 03:11:28;;;;;;;7.90;4.63;;;4.60;95.30;;;;;;6254165;28;20388;-79
2022/04/11 03:14:30;;;;;;;7.78;3.25;;;4.70;95.80;;;;;;6255648;28;20049;-79
2022/04/11 03:17:32;;;;;;;4.78;2.40;;;4.70;95.70;;;;;;6254409;28;20053;-79
2022/04/11 03:20:34;;;;;;;3.47;2.53;;;4.70;96.00;;;;;;6249302;28;20603;-79
2022/04/11 03:23:37;;;;;;;5.25;2.88;;;4.80;96.00;;;;;;6245090;28;20049;-79
2022/04/11 03:26:38;;;;;;;4.70;3.00;;;4.90;95.20;;;;;;6254622;28;20041;-79
2022/04/11 03:29:40;;;;;;;10.85;3.15;;;4.90;93.90;;;;;;6254116;28;20047;-79
2022/04/11 03:32:42;;;;;;;4.28;2.38;;;4.90;94.90;;;;;;6254738;28;20077;-78
2022/04/11 03:35:44;;;;;;;4.10;2.58;;;4.90;94.50;;;;;;6254232;28;20049;-79
2022/04/11 03:38:47;;;;;;;11.60;2.80;;;5.00;93.20;;;;;;6254424;28;20049;-78
2022/04/11 03:41:49;;;;;;;4.60;2.88;;;5.10;93.20;;;;;;6254707;28;20045;-79
2022/04/11 03:44:51;;;;;;;9.25;2.95;;;5.00;93.50;;;;;;6254915;28;20115;-78
2022/04/11 03:47:52;;;;;;;4.70;2.22;;;5.10;92.50;;;;;;6254936;28;20057;-79
2022/04/11 03:50:54;;;;;;;3.92;2.70;;;5.20;92.90;;;;;;6254304;28;20049;-79
2022/04/11 03:53:57;;;;;;;5.95;2.00;;;5.10;93.60;;;;;;6253930;28;20041;-79
2022/04/11 03:56:59;;;;;;;2.97;2.22;;;5.10;94.10;;;;;;6252853;28;20042;-79
2022/04/11 04:00:01;;;;;;;2.85;1.83;;;5.00;93.90;;;;;;6254562;28;20063;-78
2022/04/11 04:03:07;;;;;;;3.45;1.65;;;4.90;94.50;;;;;;6253383;28;20533;-79
2022/04/11 04:06:09;;;;;;;5.47;2.17;;;4.80;94.30;;;;;;6252894;28;20053;-78
2022/04/11 04:09:12;;;;;;;5.93;2.25;;;4.70;93.90;;;;;;6253212;28;20056;-79
2022/04/11 04:12:13;;;;;;;6.30;1.67;;;4.70;94.10;;;;;;6253868;28;20418;-78
2022/04/11 04:15:15;;;;;;;6.00;1.90;;;4.50;94.40;;;;;;6253686;28;20207;-80
2022/04/11 04:18:17;;;;;;;6.50;2.55;;;4.40;94.70;;;;;;6253950;28;20056;-79
2022/04/11 04:21:19;;;;;;;7.13;2.78;;;4.30;94.70;;;;;;6249978;28;20073;-81
2022/04/11 04:24:22;;;;;;;7.40;3.22;;;4.20;94.90;;;;;;6237228;28;20072;-79
2022/04/11 04:27:24;;;;;;;6.18;2.95;;;4.10;95.00;;;;;;6228704;28;20057;-79
2022/04/11 04:30:26;;;;;;;4.50;3.00;;;4.00;95.10;;;;;;6234503;28;20047;-78
2022/04/11 04:33:30;;;;;;;4.82;2.72;;;4.00;95.20;;;;;;6232639;28;20050;-79
2022/04/11 04:36:32;;;;;;;5.40;2.83;;;3.90;95.30;;;;;;6228323;28;20140;-80
2022/04/11 04:39:36;;;;;;;6.80;3.25;;;3.80;95.40;;;;;;6228063;28;20054;-79
2022/04/11 04:42:38;;;;;;;5.22;2.88;;;3.80;95.50;;;;;;6249297;28;20058;-80
2022/04/11 04:45:40;;;;;;;6.47;3.53;;;3.70;95.50;;;;;;6252006;28;20041;-80
2022/04/11 04:48:41;;;;;;;8.77;3.55;;;3.60;95.60;;;;;;6251043;28;20060;-80
2022/04/11 04:51:43;;;;;;;5.05;3.00;;;3.60;95.70;;;;;;6252635;28;20052;-79
2022/04/11 04:54:46;;;;;;;5.05;2.90;;;3.60;95.80;;;;;;6253506;28;20434;-80
2022/04/11 04:57:48;;;;;;;6.57;3.28;;;3.60;95.80;;;;;;6254849;28;20128;-80
2022/04/11 05:00:50;;;;;;;5.55;3.35;;;3.60;95.90;;;;;;6255209;28;20187;-80
2022/04/11 05:03:52;;;;;;;4.43;3.13;;;3.60;95.90;;;;;;6255394;28;20053;-80
2022/04/11 05:06:53;;;;;;;9.25;3.67;;;3.60;95.90;;;;;;6252857;28;20529;-80
2022/04/11 05:09:56;;;;;;;7.22;3.28;;;3.60;95.90;;;;;;6253093;28;20658;-79
2022/04/11 05:12:58;;;;;;;7.18;4.05;;;3.60;96.20;;;;;;6252424;28;20041;-80
2022/04/11 05:16:00;;;;;;;7.97;4.15;;;3.70;96.10;;;;;;6253030;28;20049;-79
2022/04/11 05:19:02;;;;;;;12.38;4.43;;;3.70;96.20;;;;;;6251647;28;20050;-79
2022/04/11 05:22:06;;;;;;;10.43;4.90;;;3.80;96.20;;;;;;6251534;28;20164;-78
2022/04/11 05:25:10;;;;;;;7.43;4.63;;;4.00;96.30;;;;;;6242252;28;20053;-80
2022/04/11 05:28:12;;;;;;;9.10;5.22;;;4.20;96.30;;;;;;6253343;28;20053;-79
2022/04/11 05:31:14;;;;;;;15.30;4.85;;;4.40;96.30;;;;;;6251679;28;20050;-78
2022/04/11 05:34:16;;;;;;;8.18;4.32;;;4.70;96.20;;;;;;6252266;28;20422;-78
2022/04/11 05:37:17;;;;;;;7.57;4.15;;;5.00;96.10;;;;;;6251893;28;20045;-80
2022/04/11 05:40:21;;;;;;;8.32;3.70;;;5.30;95.80;;;;;;6252506;28;20059;-80
2022/04/11 05:43:23;;;;;;;14.05;4.50;;;5.60;95.60;;;;;;6250405;28;20048;-79
2022/04/11 05:46:24;;;;;;;9.55;4.10;;;5.80;95.40;;;;;;6250462;28;20168;-78
2022/04/11 05:49:26;;;;;;;11.20;4.18;;;6.10;95.20;;;;;;6251803;28;20053;-80
2022/04/11 05:52:28;;;;;;;9.02;3.90;;;6.50;95.10;;;;;;6251695;28;20042;-78
2022/04/11 05:55:31;;;;;;;10.52;3.58;;;6.80;94.90;;;;;;6250032;28;20481;-80
2022/04/11 05:58:33;;;;;;;4.47;3.42;;;7.10;94.50;;;;;;6250433;28;20049;-80
2022/04/11 06:01:35;;;;;;;5.47;3.10;;;7.50;92.10;;;;;;6251895;28;20128;-79
2022/04/11 06:04:37;;;;;;;6.90;2.28;;;7.90;90.50;;;;;;6251093;28;20423;-79
2022/04/11 06:07:39;;;;;;;6.10;2.55;;;8.50;89.90;;;;;;6251369;28;20049;-79
2022/04/11 06:10:44;;;;;;;4.05;2.80;;;8.90;87.40;;;;;;6251963;28;20073;-80
2022/04/11 06:13:46;;;;;;;5.88;3.58;;;9.10;84.40;;;;;;6251870;28;20045;-79
2022/04/11 06:16:47;;;;;;;7.70;3.13;;;9.30;84.60;;;;;;6252596;28;20056;-79
2022/04/11 06:19:49;;;;;;;3.53;2.45;;;9.50;84.80;;;;;;6252061;28;20140;-80
2022/04/11 06:22:51;;;;;;;7.53;2.83;;;9.70;85.60;;;;;;6250686;28;20045;-80
2022/04/11 06:25:54;;;;;;;6.28;2.53;;;10.10;83.70;;;;;;6226585;28;20196;-80
2022/04/11 06:28:56;;;;;;;3.80;2.13;;;10.40;82.00;;;;;;6226438;28;20819;-80
2022/04/11 06:32:02;;;;;;;8.48;2.05;;;10.60;82.10;;;;;;6226956;28;20042;-79
2022/04/11 06:35:05;;;;;;;6.93;2.60;;;10.70;78.30;;;;;;6226329;28;20070;-80
2022/04/11 06:38:07;;;;;;;4.65;1.88;;;11.10;78.20;;;;;;6227001;28;20057;-79
2022/04/11 06:41:10;;;;;;;6.00;2.15;;;11.30;77.90;;;;;;6237809;28;20493;-79
2022/04/11 06:44:12;;;;;;;5.32;1.60;;;11.40;74.40;;;;;;6253246;28;20532;-80
2022/04/11 06:47:13;;;;;;;3.70;2.25;;;11.60;75.10;;;;;;6252780;28;20049;-80
2022/04/11 06:50:15;;;;;;;3.17;1.98;;;11.80;72.20;;;;;;6250932;28;20404;-80
2022/04/11 06:53:18;;;;;;;4.47;1.92;;;12.00;74.10;;;;;;6251971;28;20128;-80
2022/04/11 06:56:21;;;;;;;5.72;2.08;;;12.30;72.40;;;;;;6252228;28;20179;-79
2022/04/11 06:59:23;;;;;;;7.05;1.92;;;12.60;71.70;;;;;;6251008;28;20041;-80
2022/04/11 07:02:24;;;;;;;2.22;1.20;;;12.90;67.50;;;;;;6251566;28;20053;-80
2022/04/11 07:05:26;;;;;;;4.07;1.67;;;13.20;67.80;;;;;;6249935;28;20695;-81
2022/04/11 07:08:28;;;;;;;5.43;1.33;;;13.50;65.00;;;;;;6244958;28;20052;-79
2022/04/11 07:11:31;;;;;;;3.80;1.10;;;14.20;64.10;;;;;;6251741;28;20037;-79
2022/04/11 07:14:33;;;;;;;2.55;1.63;;;15.30;58.90;;;;;;6239035;28;20052;-79
2022/04/11 07:17:35;;;;;;;1.30;0.90;;;16.80;55.30;;;;;;6226814;28;20145;-80
2022/04/11 07:20:38;;;;;;;3.38;1.63;;;18.50;47.50;;;;;;6236854;28;20508;-80
2022/04/11 07:23:40;;;;;;;4.85;1.48;;;19.80;44.80;;;;;;6253531;23;20060;-82
2022/04/11 07:26:43;;;;;;;2.85;1.27;;;20.90;40.80;;;;;;6207147;28;20058;-85
2022/04/11 07:29:45;;;;;;;4.40;1.60;;;21.30;39.50;;;;;;6208077;28;20062;-83
2022/04/11 07:32:47;;;;;;;2.80;1.30;;;21.50;37.60;;;;;;6211506;28;20124;-82
2022/04/11 07:35:49;;;;;;;3.03;1.15;;;21.20;38.70;;;;;;6210960;28;20078;-83
2022/04/11 07:38:51;;;;;;;4.60;1.40;;;21.40;40.00;;;;;;6206258;28;20046;-82
2022/04/11 07:41:54;;;;;;;6.82;1.38;;;21.30;38.00;;;;;;6200415;28;20419;-83
2022/04/11 07:44:56;;;;;;;4.10;1.13;;;21.20;40.90;;;;;;6208847;28;20557;-83
2022/04/11 07:47:58;;;;;;;2.20;0.82;;;21.20;39.80;;;;;;6210027;28;20052;-82
2022/04/11 07:51:00;;;;;;;3.80;1.23;;;21.30;36.30;;;;;;6211684;28;20054;-84
2022/04/11 07:54:02;;;;;;;2.10;1.00;;;20.70;36.80;;;;;;6209313;28;20073;-82
2022/04/11 07:57:05;;;;;;;1.75;0.93;;;20.40;37.40;;;;;;6208699;28;20046;-81
2022/04/11 08:00:09;;;;;;;4.90;1.30;;;20.80;37.60;;;;;;6207517;28;20110;-82
2022/04/11 08:03:10;;;;;;;2.40;0.90;;;21.10;37.80;;;;;;6209404;28;20050;-81
2022/04/11 08:06:12;;;;;;;1.55;1.23;;;21.50;36.10;;;;;;6216362;28;20062;-82
2022/04/11 08:09:14;;;;;;;4.30;1.27;;;22.30;35.70;;;;;;6210827;28;20071;-82
2022/04/11 08:12:20;;;;;;;2.80;1.08;;;23.00;34.90;;;;;;6206750;28;20525;-82
2022/04/11 08:15:22;;;;;;;2.67;1.42;;;23.70;33.00;;;;;;6208451;28;20050;-81
2022/04/11 08:18:24;;;;;;;4.70;1.80;;;24.00;32.60;;;;;;6206520;28;20042;-81
2022/04/11 08:21:26;;;;;;;4.50;1.70;;;24.60;32.20;;;;;;6208050;28;20097;-81
2022/04/11 08:24:27;;;;;;;1.08;0.90;;;24.50;30.00;;;;;;6209578;28;20058;-82
2022/04/11 08:27:31;;;;;;;3.63;1.25;;;24.50;30.90;;;;;;6207674;28;20048;-81
2022/04/11 08:30:32;;;;;;;2.42;1.50;;;25.00;31.20;;;;;;6205952;28;20130;-81
2022/04/11 08:33:34;;;;;;;4.45;1.00;;;25.90;30.90;;;;;;6208315;28;20200;-82
2022/04/11 08:36:36;;;;;;;2.50;0.57;;;26.70;28.70;;;;;;6206562;28;20050;-83
2022/04/11 08:39:38;;;;;;;10.00;1.00;;;26.70;28.50;;;;;;6206477;28;20157;-84
2022/04/11 08:42:43;;;;;;;4.68;1.30;;;26.60;28.10;;;;;;6182518;28;20042;-83
2022/04/11 08:45:46;;;;;;;2.83;1.10;;;26.40;28.10;;;;;;6182962;28;20058;-81
2022/04/11 08:48:48;;;;;;;4.40;0.77;;;26.20;27.70;;;;;;6181640;28;20086;-82
2022/04/11 08:51:50;;;;;;;3.10;0.80;;;26.10;27.50;;;;;;6183588;28;20133;-80
2022/04/11 08:54:52;;;;;;;2.47;0.82;;;26.10;28.60;;;;;;6183073;28;20404;-81
2022/04/11 08:57:58;;;;;;;3.35;0.70;;;26.30;27.50;;;;;;6182342;28;20047;-82
2022/04/11 09:01:01;;;;;;;1.00;0.45;;;25.60;27.90;;;;;;6181967;28;20501;-80
2022/04/11 09:04:02;;;;;;;3.17;0.70;;;25.30;27.80;;;;;;6182549;28;20042;-81
2022/04/11 09:07:04;;;;;;;3.35;0.77;;;25.30;28.60;;;;;;6187811;28;20570;-81
2022/04/11 09:10:08;;;;;;;2.20;0.57;;;25.30;28.50;;;;;;6202238;28;20053;-81
2022/04/11 09:13:12;;;;;;;4.60;0.95;;;25.60;28.40;;;;;;6181718;28;20043;-81
2022/04/11 09:16:13;;;;;;;3.50;1.55;;;25.10;27.70;;;;;;6182623;28;20055;-81
2022/04/11 09:19:23;;;;;;;3.30;0.75;;;24.80;28.20;;;;;;6181807;28;20097;-81
2022/04/11 09:22:30;;;;;;;3.88;0.40;;;24.60;28.00;;;;;;6181612;28;20034;-82
2022/04/11 09:25:34;;;;;;;1.88;0.95;;;24.80;29.20;;;;;;6181889;28;20057;-81
2022/04/11 09:28:37;;;;;;;1.65;0.75;;;24.70;28.10;;;;;;6191405;28;20050;-80
2022/04/11 09:31:39;;;;;;;4.60;1.05;;;24.20;28.10;;;;;;6183057;28;20063;-81
2022/04/11 09:34:41;;;;;;;1.83;0.65;;;24.10;28.40;;;;;;6178994;28;20138;-79
2022/04/11 09:37:44;;;;;;;2.78;0.70;;;24.50;28.70;;;;;;6176067;28;20077;-80
2022/04/11 09:40:49;;;;;;;0.88;0.50;;;24.90;28.50;;;;;;6192072;28;20057;-78
2022/04/11 09:43:52;;;;;;;1.58;0.60;;;25.50;27.70;;;;;;6177501;28;20105;-78
2022/04/11 09:46:55;;;;;;;1.52;0.60;;;25.30;27.40;;;;;;6178638;28;20047;-80
2022/04/11 09:49:57;;;;;;;1.52;0.30;;;24.40;27.70;;;;;;6182126;28;20047;-80
2022/04/11 09:53:11;;;;;;;2.45;0.60;;;23.70;28.40;;;;;;6181632;28;20066;-80
2022/04/11 09:56:13;;;;;;;1.77;0.43;;;23.00;29.40;;;;;;6182290;28;20061;-80
2022/04/11 09:59:16;;;;;;;1.00;0.50;;;22.70;29.00;;;;;;6180946;28;20416;-80
2022/04/11 10:02:18;;;;;;;1.30;0.35;;;22.10;29.80;;;;;;6180662;28;20053;-80
2022/04/11 10:05:20;;;;;;;2.22;0.60;;;21.50;29.20;;;;;;6181517;28;20053;-80
2022/04/11 10:08:25;;;;;;;0.90;0.40;;;21.20;30.30;;;;;;6189760;28;20487;-80
2022/04/11 10:11:28;;;;;;;1.23;0.40;;;20.90;29.70;;;;;;6191215;28;20043;-80
2022/04/11 10:14:32;;;;;;;1.45;0.30;;;20.80;31.20;;;;;;6181047;28;20539;-82
2022/04/11 10:17:34;;;;;;;1.40;0.43;;;20.70;31.30;;;;;;6180841;28;20557;-80
2022/04/11 10:20:37;;;;;;;3.08;0.43;;;20.40;31.50;;;;;;6180549;28;20367;-80
2022/04/11 10:23:48;;;;;;;1.80;0.77;;;20.30;31.70;;;;;;6181539;28;20047;-81
2022/04/11 10:26:53;;;;;;;2.28;0.73;;;20.30;32.10;;;;;;6180932;28;20047;-80
2022/04/11 10:29:57;;;;;;;2.33;0.82;;;20.30;32.50;;;;;;6200533;28;20046;-82
2022/04/11 10:32:59;;;;;;;3.58;0.75;;;20.30;32.30;;;;;;6204859;28;20054;-80
2022/04/11 10:36:01;;;;;;;1.83;0.70;;;20.60;33.60;;;;;;6205446;28;20053;-81
2022/04/11 10:39:28;;;;;;;0.98;0.40;;;21.10;33.40;;;;;;6204048;28;20133;-82
2022/04/11 10:42:30;;;;;;;2.17;0.45;;;21.40;31.90;;;;;;6167360;28;20055;-80
2022/04/11 10:45:35;;;;;;;2.63;0.73;;;21.30;32.10;;;;;;6180149;28;20047;-80
2022/04/11 10:49:05;;;;;;;1.55;0.98;;;21.00;30.80;;;;;;6179537;28;20057;-81
2022/04/11 10:52:28;;;;;;;2.05;0.50;;;20.60;31.80;;;;;;6181393;28;20055;-80
2022/04/11 10:55:30;;;;;;;0.63;0.32;;;20.60;32.60;;;;;;6180112;28;20046;-80
2022/04/11 10:58:56;;;;;;;1.95;0.73;;;21.10;32.50;;;;;;6180103;28;20126;-80
2022/04/11 11:02:00;;;;;;;2.40;0.50;;;21.30;31.00;;;;;;6160879;28;20046;-81
2022/04/11 11:05:22;;;;;;;2.67;0.70;;;21.00;30.50;;;;;;6182423;28;20077;-80
2022/04/11 11:08:33;;;;;;;3.35;0.32;;;20.70;31.70;;;;;;6193939;28;20056;-80
2022/04/11 11:11:35;;;;;;;2.83;0.68;;;20.50;31.80;;;;;;6194139;28;20086;-83
2022/04/11 11:14:41;;;;;;;3.78;0.63;;;20.60;32.20;;;;;;6191971;28;20790;-80
2022/04/11 11:17:57;;;;;;;2.08;0.50;;;20.90;31.40;;;;;;6207220;28;20057;-79
2022/04/11 11:20:59;;;;;;;1.13;0.40;;;21.30;32.10;;;;;;6204798;28;20089;-79
2022/04/11 11:24:12;;;;;;;1.33;0.50;;;21.50;31.50;;;;;;6206544;28;20209;-79
2022/04/11 11:27:16;;;;;;;1.92;0.82;;;21.90;31.20;;;;;;6203426;28;20039;-78
2022/04/11 11:30:18;;;;;;;1.58;0.43;;;22.00;31.10;;;;;;6184302;28;20101;-79
2022/04/11 11:33:21;;;;;;;2.33;0.80;;;22.20;31.40;;;;;;6181437;28;20051;-78
2022/04/11 11:36:28;;;;;;;2.28;0.68;;;22.20;29.90;;;;;;6187585;28;20050;-79
2022/04/11 11:39:31;;;;;;;1.83;0.47;;;22.10;31.30;;;;;;6206675;28;20046;-80
2022/04/11 11:42:37;;;;;;;1.60;0.75;;;22.20;30.80;;;;;;6205918;28;20052;-80
2022/04/11 11:45:41;;;;;;;1.25;0.50;;;22.10;31.40;;;;;;6205466;28;20404;-80
2022/04/11 11:48:44;;;;;;;2.42;0.75;;;21.70;30.60;;;;;;6204949;28;20053;-78
2022/04/11 11:51:46;;;;;;;1.45;0.65;;;21.40;31.10;;;;;;6203807;28;20054;-79
2022/04/11 11:54:50;;;;;;;2.00;0.60;;;21.60;32.00;;;;;;6205235;28;20133;-80
2022/04/11 11:58:03;;;;;;;1.63;0.45;;;22.00;32.20;;;;;;6204497;28;20748;-79
2022/04/11 12:01:06;;;;;;;1.73;0.50;;;22.20;31.00;;;;;;6204646;28;20137;-78
2022/04/11 12:04:19;;;;;;;2.22;0.60;;;22.10;30.40;;;;;;6208222;28;20062;-78
2022/04/11 12:07:21;;;;;;;1.08;0.22;;;22.20;31.30;;;;;;6204184;28;20050;-79
2022/04/11 12:10:23;;;;;;;1.88;1.45;;;22.60;30.10;;;;;;6195249;28;20516;-79
2022/04/11 12:13:27;;;;;;;2.60;0.50;;;22.70;29.80;;;;;;6178534;28;20058;-80
2022/04/11 12:16:30;;;;;;;2.25;0.55;;;22.90;30.00;;;;;;6182782;28;20066;-79
2022/04/11 12:19:35;;;;;;;2.75;0.70;;;23.10;30.70;;;;;;6177762;28;20141;-79
2022/04/11 12:22:37;;;;;;;0.90;0.32;;;23.10;29.40;;;;;;6177488;28;20130;-79
2022/04/11 12:25:40;;;;;;;0.95;0.30;;;23.10;30.30;;;;;;6176975;28;20138;-80
2022/04/11 12:28:42;;;;;;;3.75;0.40;;;23.20;29.50;;;;;;6176931;28;20132;-80
2022/04/11 12:31:55;;;;;;;2.13;0.60;;;22.80;29.30;;;;;;6192192;28;20145;-80
2022/04/11 12:35:14;;;;;;;2.25;0.50;;;22.40;29.20;;;;;;6200706;28;20046;-80
2022/04/11 12:38:16;;;;;;;1.73;0.40;;;22.20;30.10;;;;;;6200855;28;20125;-80
2022/04/11 12:41:31;;;;;;;2.47;0.47;;;22.30;30.20;;;;;;6193000;28;20057;-80
2022/04/11 12:44:35;;;;;;;0.93;0.40;;;22.20;29.90;;;;;;6201972;28;20043;-80
2022/04/11 12:48:01;;;;;;;2.17;0.40;;;22.30;30.70;;;;;;6203123;28;20118;-80
2022/04/11 12:51:13;;;;;;;0.93;0.40;;;22.30;29.50;;;;;;6200577;28;20126;-79
2022/04/11 12:54:16;;;;;;;3.40;0.57;;;22.30;29.60;;;;;;6201382;28;20054;-80
2022/04/11 12:57:20;;;;;;;1.38;0.63;;;22.40;30.90;;;;;;6201534;28;20046;-79
2022/04/11 13:00:24;;;;;;;3.03;0.73;;;22.30;29.60;;;;;;6200543;28;20047;-83
2022/04/11 13:03:26;;;;;;;2.60;0.50;;;22.20;30.70;;;;;;6200791;28;20069;-80
2022/04/11 13:06:29;;;;;;;1.00;0.40;;;22.30;30.00;;;;;;6200125;28;20042;-80
2022/04/11 13:09:31;;;;;;;1.65;0.55;;;22.60;30.40;;;;;;6200204;28;20046;-80
2022/04/11 13:12:33;;;;;;;1.00;0.57;;;23.00;30.40;;;;;;6200819;28;20046;-80
2022/04/11 13:18:23;;;;;;;1.48;0.60;;;23.30;29.50;;;;;;6207307;28;20054;-81
2022/04/11 13:18:57;;;;;;;2.15;0.57;;;23.30;29.50;;;;;;6204751;28;20057;-79
2022/04/11 13:22:02;;;;;;;1.77;0.40;;;23.60;30.20;;;;;;6206068;28;20042;-80
2022/04/11 13:25:05;;;;;;;2.38;1.08;;;24.20;29.40;;;;;;6208721;28;20046;-78
2022/04/11 13:28:09;;;;;;;1.95;0.50;;;24.30;28.40;;;;;;6202218;28;20132;-80
2022/04/11 13:31:11;;;;;;;4.35;0.65;;;24.20;29.60;;;;;;6199163;28;20057;-79
2022/04/11 13:34:12;;;;;;;2.22;0.70;;;24.40;29.50;;;;;;6180524;28;20046;-80
2022/04/11 13:37:17;;;;;;;4.13;0.60;;;24.60;29.20;;;;;;6179651;28;20050;-80
2022/04/11 13:40:19;;;;;;;1.85;0.80;;;24.90;28.90;;;;;;6201068;28;20265;-79
2022/04/11 13:43:21;;;;;;;2.00;0.75;;;24.40;28.70;;;;;;6183237;28;20514;-80
2022/04/11 13:46:22;;;;;;;2.03;0.60;;;23.90;29.10;;;;;;6181581;28;20066;-79
2022/04/11 13:49:24;;;;;;;2.03;0.68;;;23.70;29.00;;;;;;6182768;28;20062;-80
2022/04/11 13:52:27;;;;;;;1.35;0.63;;;23.60;29.10;;;;;;6179878;28;20050;-78
2022/04/11 13:55:29;;;;;;;2.83;0.63;;;23.50;29.00;;;;;;6180718;28;20486;-79
2022/04/11 13:58:31;;;;;;;1.52;0.52;;;23.50;29.50;;;;;;6182910;28;20054;-81
2022/04/11 14:01:32;;;;;;;2.47;0.57;;;23.50;29.50;;;;;;6182060;28;20051;-80
2022/04/11 14:04:34;;;;;;;3.22;0.60;;;23.40;29.00;;;;;;6184871;28;20046;-79
2022/04/11 14:07:37;;;;;;;1.17;0.70;;;23.30;29.50;;;;;;6183988;28;20054;-80
2022/04/11 14:10:40;;;;;;;2.72;0.63;;;23.50;29.60;;;;;;6197501;28;20042;-80
2022/04/11 14:13:42;;;;;;;1.98;0.55;;;23.70;29.70;;;;;;6180621;28;20117;-80
2022/04/11 14:16:43;;;;;;;1.50;0.60;;;23.60;28.80;;;;;;6179627;28;20444;-80
2022/04/11 14:19:45;;;;;;;3.65;0.68;;;23.10;29.20;;;;;;6180829;28;20050;-82
2022/04/11 14:22:48;;;;;;;1.90;0.73;;;22.80;30.40;;;;;;6181395;28;20357;-80
2022/04/11 14:25:50;;;;;;;3.58;0.70;;;23.00;30.30;;;;;;6179898;28;20109;-80
2022/04/11 14:28:52;;;;;;;2.65;0.85;;;23.20;30.00;;;;;;6178480;28;20050;-80
2022/04/11 14:31:55;;;;;;;2.97;0.80;;;23.30;29.40;;;;;;6186216;28;20057;-80
2022/04/11 14:34:57;;;;;;;2.47;0.77;;;23.10;29.80;;;;;;6200170;28;20134;-80
2022/04/11 14:38:00;;;;;;;1.65;0.98;;;23.10;30.00;;;;;;6203624;28;20054;-80
2022/04/11 14:41:02;;;;;;;3.22;0.70;;;22.70;29.80;;;;;;6194211;28;20054;-81
2022/04/11 14:44:04;;;;;;;2.17;0.55;;;22.50;30.00;;;;;;6183408;28;20047;-81
2022/04/11 14:47:07;;;;;;;2.08;0.80;;;22.30;30.70;;;;;;6180780;28;20047;-81
2022/04/11 14:50:09;;;;;;;1.73;0.70;;;22.10;31.10;;;;;;6184837;28;20137;-81
2022/04/11 14:53:12;;;;;;;0.82;0.45;;;22.20;31.00;;;;;;6183572;28;20133;-81
2022/04/11 14:56:14;;;;;;;7.28;1.40;;;22.00;30.50;;;;;;6184968;28;20486;-80
2022/04/11 14:59:16;;;;;;;2.17;0.90;;;21.90;31.20;;;;;;6183532;28;20054;-80
2022/04/11 15:02:18;;;;;;;3.17;0.95;;;21.80;31.10;;;;;;6197919;28;20115;-81
2022/04/11 15:05:19;;;;;;;2.88;1.00;;;21.90;31.70;;;;;;6198771;28;20055;-82
2022/04/11 15:08:22;;;;;;;1.17;0.70;;;21.80;31.10;;;;;;6204523;28;20042;-83
2022/04/11 15:11:24;;;;;;;4.28;0.90;;;21.80;31.70;;;;;;6213977;28;20105;-82
2022/04/11 15:14:26;;;;;;;1.27;0.50;;;21.70;31.40;;;;;;6217293;28;20073;-80
2022/04/11 15:17:28;;;;;;;3.72;0.65;;;21.70;31.60;;;;;;6213504;28;20109;-80
2022/04/11 15:20:30;;;;;;;2.35;0.93;;;21.60;31.90;;;;;;6214778;28;20115;-80
2022/04/11 15:23:34;;;;;;;2.55;0.80;;;21.60;31.10;;;;;;6217213;28;20039;-81
2022/04/11 15:26:37;;;;;;;1.65;0.60;;;21.40;31.40;;;;;;6213863;28;20137;-80
2022/04/11 15:29:39;;;;;;;2.20;1.55;;;21.40;31.70;;;;;;6216109;28;20062;-80
2022/04/11 15:32:41;;;;;;;1.23;0.55;;;21.50;32.00;;;;;;6213324;28;20084;-79
2022/04/11 15:35:43;;;;;;;1.00;0.47;;;21.60;31.60;;;;;;6209422;28;20053;-80
2022/04/11 15:38:46;;;;;;;2.60;0.80;;;21.40;31.80;;;;;;6212845;28;20053;-78
2022/04/11 15:41:48;;;;;;;2.50;0.65;;;21.30;32.10;;;;;;6214657;28;20081;-79
2022/04/11 15:44:49;;;;;;;3.63;0.80;;;21.10;32.20;;;;;;6213897;28;20137;-79
2022/04/11 15:47:52;;;;;;;1.73;0.45;;;20.90;32.20;;;;;;6214382;28;20085;-79
2022/04/11 15:50:53;;;;;;;1.50;0.70;;;20.70;33.00;;;;;;6210517;28;20050;-79
2022/04/11 15:53:56;;;;;;;2.13;0.70;;;20.60;32.90;;;;;;6212071;28;20042;-79
2022/04/11 15:56:58;;;;;;;1.33;0.57;;;20.40;32.90;;;;;;6214856;28;20524;-79